Good Thunder, Minnesota
Current Conditions -  °F | °C
As of 5:55 PM on Wednesday 22 Oct 2014 (Local Time) from KMKT Reporting Station
Clear Clear  
Wind Chill: 61°   Ceiling: Unl
Heat Index: 61°   Visibility: 10mi
Dew Point: 39°   Wind: 21mph
Humidity: 45%   Direction: 150°SSE
Pressure: 30.02"   Gusts: 28mph
Location:  44°N, 94.07°W
Report Text: KMKT 222255Z AUTO 15018G24KT 10SM CLR 16/04 A3002 RMK AO1
Loading
Personal Weather Stations






























Interactive Weather Map
Tropical Storm Tracking
New forecast layout! Learn more

10-Day Weather Forecast

Advertisements
Track Severe Weather on mobile